createdAt,value
2022-11-20T00:00:20.274Z,99723.78
2022-11-20T00:01:42.680Z,99715.88
2022-11-20T00:03:04.183Z,99725.50
2022-11-20T00:04:26.469Z,99721.91
2022-11-20T00:05:50.181Z,99721.06
2022-11-20T00:07:26.625Z,99720.09
2022-11-20T00:08:59.675Z,99720.09
2022-11-20T00:10:26.062Z,99715.72
2022-11-20T00:12:02.210Z,99714.75
2022-11-20T00:13:27.354Z,99712.03
2022-11-20T00:14:55.711Z,99709.41
2022-11-20T00:16:21.697Z,99711.81
2022-11-20T00:17:45.974Z,99701.28
2022-11-20T00:19:10.626Z,99715.28
2022-11-20T00:20:39.669Z,99717.00
2022-11-20T00:22:04.018Z,99714.34
2022-11-20T00:23:26.942Z,99716.88
2022-11-20T00:24:49.370Z,99721.28
2022-11-20T00:26:12.827Z,99716.13
2022-11-20T00:27:35.205Z,99726.78
2022-11-20T00:29:04.095Z,99725.06
2022-11-20T00:30:32.331Z,99720.84
2022-11-20T00:31:59.819Z,99722.00
2022-11-20T00:33:26.291Z,99724.75
2022-11-20T00:34:47.646Z,99722.31
2022-11-20T00:36:14.571Z,99728.63
2022-11-20T00:37:36.660Z,99727.88
2022-11-20T00:39:02.600Z,99724.50
2022-11-20T00:40:24.860Z,99724.59
2022-11-20T00:41:46.962Z,99727.34
2022-11-20T00:43:09.098Z,99725.75
2022-11-20T00:44:31.336Z,99726.69
2022-11-20T00:45:52.709Z,99725.09
2022-11-20T00:47:16.283Z,99731.31
2022-11-20T00:48:38.044Z,99727.09
2022-11-20T00:50:00.409Z,99732.44
2022-11-20T00:51:24.907Z,99730.78
2022-11-20T00:52:47.372Z,99728.22
2022-11-20T00:54:09.624Z,99729.19
2022-11-20T00:55:30.832Z,99739.69
2022-11-20T00:56:55.226Z,99740.63
2022-11-20T00:58:16.343Z,99740.75
2022-11-20T00:59:38.359Z,99741.66
2022-11-20T01:01:04.148Z,99736.53
2022-11-20T01:02:30.289Z,99740.84
2022-11-20T01:03:54.538Z,99747.03
2022-11-20T01:05:18.897Z,99739.16
2022-11-20T01:06:44.479Z,99740.94
2022-11-20T01:08:05.949Z,99740.09
2022-11-20T01:09:27.948Z,99737.38
2022-11-20T01:10:55.757Z,99736.63
2022-11-20T01:12:17.844Z,99737.38
2022-11-20T01:13:40.305Z,99740.84
2022-11-20T01:15:02.487Z,99743.47
2022-11-20T01:16:25.830Z,99743.47
2022-11-20T01:17:49.248Z,99739.91
2022-11-20T01:19:17.677Z,99743.38
2022-11-20T01:20:39.495Z,99741.59
2022-11-20T01:22:01.727Z,99739.91
2022-11-20T01:23:22.994Z,99734.66
2022-11-20T01:24:46.662Z,99742.41
2022-11-20T01:26:09.488Z,99739.78
2022-11-20T01:27:31.659Z,99733.69
2022-11-20T01:28:54.426Z,99739.91
2022-11-20T01:30:16.795Z,99740.75
2022-11-20T01:31:39.207Z,99744.22
2022-11-20T01:33:03.014Z,99734.53
2022-11-20T01:34:26.144Z,99730.97
2022-11-20T01:35:47.638Z,99738.00
2022-11-20T01:37:09.720Z,99733.59
2022-11-20T01:38:30.393Z,99729.28
2022-11-20T01:39:54.787Z,99737.06
2022-11-20T01:41:33.945Z,99734.44
2022-11-20T01:43:22.397Z,99735.28
2022-11-20T01:44:59.385Z,99738.00
2022-11-20T01:46:21.124Z,99739.78
2022-11-20T01:47:47.624Z,99738.19
2022-11-20T01:49:18.803Z,99737.38
2022-11-20T01:50:41.068Z,99728.72
2022-11-20T01:52:07.299Z,99729.69
2022-11-20T01:53:32.338Z,99727.13
2022-11-20T01:55:00.898Z,99737.78
2022-11-20T01:56:29.582Z,99731.75
2022-11-20T01:57:55.814Z,99736.34
2022-11-20T01:59:26.162Z,99730.34
2022-11-20T02:00:59.344Z,99726.13
2022-11-20T02:02:27.234Z,99730.75
2022-11-20T02:03:54.088Z,99730.00
2022-11-20T02:05:33.850Z,99721.50
2022-11-20T02:07:03.580Z,99721.56
2022-11-20T02:08:29.249Z,99719.97
2022-11-20T02:09:59.033Z,99715.75
2022-11-20T02:11:30.048Z,99718.47
2022-11-20T02:13:13.113Z,99716.88
2022-11-20T02:14:35.326Z,99717.94
2022-11-20T02:15:58.283Z,99720.69
2022-11-20T02:17:23.253Z,99724.34
2022-11-20T02:18:45.555Z,99719.16
2022-11-20T02:20:11.743Z,99723.66
2022-11-20T02:21:40.636Z,99722.91
2022-11-20T02:23:07.128Z,99733.56
2022-11-20T02:24:30.851Z,99727.53
2022-11-20T02:25:54.014Z,99727.63
2022-11-20T02:27:18.043Z,99731.19
2022-11-20T02:28:39.443Z,99719.84
2022-11-20T02:30:04.640Z,99720.78
2022-11-20T02:31:25.860Z,99720.78
2022-11-20T02:32:48.178Z,99718.16
2022-11-20T02:34:10.810Z,99711.22
2022-11-20T02:35:44.045Z,99718.16
2022-11-20T02:37:06.531Z,99719.03
2022-11-20T02:38:28.079Z,99718.16
2022-11-20T02:39:53.763Z,99720.78
2022-11-20T02:41:17.529Z,99723.31
2022-11-20T02:42:39.987Z,99726.78
2022-11-20T02:44:01.305Z,99724.16
2022-11-20T02:45:24.810Z,99731.19
2022-11-20T02:46:46.875Z,99734.66
2022-11-20T02:48:08.911Z,99735.63
2022-11-20T02:49:31.142Z,99730.38
2022-11-20T02:50:52.160Z,99726.03
2022-11-20T02:52:14.310Z,99727.00
2022-11-20T02:53:35.315Z,99728.84
2022-11-20T02:54:59.185Z,99728.97
2022-11-20T02:56:21.653Z,99718.53
2022-11-20T02:57:42.867Z,99727.34
2022-11-20T02:59:05.674Z,99721.25
2022-11-20T03:00:27.656Z,99725.69
2022-11-20T03:01:49.771Z,99729.97
2022-11-20T03:03:10.305Z,99712.63
2022-11-20T03:04:32.494Z,99717.03
2022-11-20T03:05:54.554Z,99720.50
2022-11-20T03:07:16.946Z,99721.47
2022-11-20T03:08:38.249Z,99721.47
2022-11-20T03:10:01.864Z,99716.19
2022-11-20T03:11:24.289Z,99725.03
2022-11-20T03:12:46.562Z,99716.28
2022-11-20T03:14:08.961Z,99725.03
2022-11-20T03:15:29.906Z,99726.78
2022-11-20T03:16:52.223Z,99728.50
2022-11-20T03:18:14.722Z,99718.91
2022-11-20T03:19:37.142Z,99718.91
2022-11-20T03:21:03.420Z,99720.63
2022-11-20T03:22:24.813Z,99712.75
2022-11-20T03:23:47.289Z,99716.13
2022-11-20T03:25:10.136Z,99720.41
2022-11-20T03:26:32.366Z,99710.75
2022-11-20T03:27:54.534Z,99711.59
2022-11-20T03:29:16.688Z,99718.53
2022-11-20T03:30:37.721Z,99714.97
2022-11-20T03:32:03.399Z,99712.34
2022-11-20T03:33:23.896Z,99716.75
2022-11-20T03:34:46.014Z,99715.84
2022-11-20T03:36:09.704Z,99712.25
2022-11-20T03:37:32.129Z,99718.34
2022-11-20T03:38:55.429Z,99712.16
2022-11-20T03:40:19.724Z,99708.59
2022-11-20T03:41:44.895Z,99710.25
2022-11-20T03:43:05.965Z,99706.72
2022-11-20T03:44:30.389Z,99713.66
2022-11-20T03:45:51.639Z,99710.94
2022-11-20T03:47:14.056Z,99720.50
2022-11-20T03:48:36.028Z,99716.94
2022-11-20T03:49:57.091Z,99709.78
2022-11-20T03:51:21.566Z,99713.38
2022-11-20T03:52:43.147Z,99714.13
2022-11-20T03:54:07.101Z,99713.06
2022-11-20T03:55:29.358Z,99720.00
2022-11-20T03:56:51.344Z,99720.00
2022-11-20T03:58:22.783Z,99724.22
2022-11-20T03:59:44.802Z,99718.88
2022-11-20T04:01:12.086Z,99714.47
2022-11-20T04:02:35.877Z,99716.16
2022-11-20T04:03:59.202Z,99717.75
2022-11-20T04:05:20.603Z,99718.69
2022-11-20T04:07:04.274Z,99718.69
2022-11-20T04:08:31.399Z,99721.31
2022-11-20T04:09:54.122Z,99727.31
2022-11-20T04:11:22.527Z,99729.09
2022-11-20T04:12:45.663Z,99733.41
2022-11-20T04:14:15.128Z,99725.53
2022-11-20T04:15:38.621Z,99729.00
2022-11-20T04:17:04.134Z,99722.91
2022-11-20T04:18:31.036Z,99730.78
2022-11-20T04:21:41.406Z,99730.91
2022-11-20T04:23:11.830Z,99731.81
2022-11-20T04:24:37.478Z,99730.16
2022-11-20T04:26:03.810Z,99730.16
2022-11-20T04:27:29.664Z,99731.94
2022-11-20T04:28:53.477Z,99727.59
2022-11-20T04:30:28.593Z,99725.81
2022-11-20T04:32:04.615Z,99719.72
2022-11-20T04:33:34.614Z,99727.53
2022-11-20T04:35:06.914Z,99710.91
2022-11-20T04:36:31.190Z,99723.09
2022-11-20T04:38:00.181Z,99716.16
2022-11-20T04:39:36.516Z,99716.16
2022-11-20T04:41:08.751Z,99714.38
2022-11-20T04:42:36.931Z,99715.22
2022-11-20T04:46:47.955Z,99708.38
2022-11-20T04:51:51.591Z,99708.56
2022-11-20T04:54:26.647Z,99702.47
2022-11-20T04:56:26.183Z,99707.06
2022-11-20T04:58:56.746Z,99708.19
2022-11-20T05:04:35.246Z,99696.22
2022-11-20T05:06:03.252Z,99700.72
2022-11-20T05:07:41.673Z,99702.50
2022-11-20T05:09:19.631Z,99698.16
2022-11-20T05:10:42.486Z,99695.66
2022-11-20T05:12:25.775Z,99693.94
2022-11-20T05:14:03.259Z,99688.69
2022-11-20T05:16:10.466Z,99689.66
2022-11-20T05:17:41.966Z,99687.84
2022-11-20T05:19:34.236Z,99681.75
2022-11-20T05:21:08.297Z,99682.81
2022-11-20T05:26:21.708Z,99683.09
2022-11-20T05:28:06.403Z,99682.34
2022-11-20T05:29:29.929Z,99682.34
2022-11-20T05:31:06.274Z,99687.59
2022-11-20T05:32:30.281Z,99688.53
2022-11-20T05:34:10.133Z,99690.31
2022-11-20T05:35:32.222Z,99691.38
2022-11-20T05:37:10.914Z,99688.06
2022-11-20T05:38:32.688Z,99686.47
2022-11-20T05:39:56.176Z,99687.44
2022-11-20T05:41:24.560Z,99693.59
2022-11-20T05:43:04.666Z,99678.13
2022-11-20T05:44:46.376Z,99680.09
2022-11-20T05:46:12.722Z,99682.94
2022-11-20T05:47:36.354Z,99676.94
2022-11-20T05:49:00.185Z,99675.34
2022-11-20T05:50:21.350Z,99668.38
2022-11-20T05:51:43.800Z,99666.78
2022-11-20T05:53:04.809Z,99674.78
2022-11-20T05:54:27.029Z,99677.47
2022-11-20T05:55:49.309Z,99665.31
2022-11-20T05:57:11.237Z,99667.09
2022-11-20T05:58:33.470Z,99666.22
2022-11-20T05:59:57.254Z,99664.56
2022-11-20T06:01:21.039Z,99666.22
2022-11-20T06:02:42.116Z,99668.97
2022-11-20T06:04:04.565Z,99668.13
2022-11-20T06:05:25.541Z,99667.25
2022-11-20T06:06:47.673Z,99663.78
2022-11-20T06:08:09.349Z,99671.75
2022-11-20T06:09:31.782Z,99677.88
2022-11-20T06:10:53.186Z,99670.00
2022-11-20T06:12:16.654Z,99672.63
2022-11-20T06:13:42.002Z,99665.59
2022-11-20T06:15:06.489Z,99671.66
2022-11-20T06:16:28.888Z,99669.03
2022-11-20T06:17:55.446Z,99675.13
2022-11-20T06:19:17.990Z,99669.03
2022-11-20T06:20:42.236Z,99666.34
2022-11-20T06:22:04.425Z,99660.13
2022-11-20T06:23:24.951Z,99658.47
2022-11-20T06:24:50.172Z,99661.09
2022-11-20T06:26:13.381Z,99663.59
2022-11-20T06:27:37.074Z,99658.34
2022-11-20T06:29:16.499Z,99658.25
2022-11-20T06:30:47.483Z,99653.09
2022-11-20T06:32:10.069Z,99651.41
2022-11-20T06:33:50.458Z,99653.09
2022-11-20T06:35:14.245Z,99650.38
2022-11-20T06:36:43.008Z,99657.31
2022-11-20T06:38:05.664Z,99653.78
2022-11-20T06:39:30.488Z,99658.91
2022-11-20T06:40:51.527Z,99648.31
2022-11-20T06:42:16.216Z,99647.38
2022-11-20T06:43:39.961Z,99649.91
2022-11-20T06:45:02.039Z,99639.22
2022-11-20T06:46:24.737Z,99646.91
2022-11-20T06:47:49.495Z,99650.28
2022-11-20T06:49:11.970Z,99651.84
2022-11-20T06:50:34.210Z,99650.00
2022-11-20T06:52:00.707Z,99656.81
2022-11-20T06:53:22.437Z,99652.25
2022-11-20T06:54:44.668Z,99653.84
2022-11-20T06:56:08.805Z,99658.88
2022-11-20T06:57:31.414Z,99661.31
2022-11-20T06:58:53.443Z,99657.66
2022-11-20T07:00:16.485Z,99662.69
2022-11-20T07:01:42.322Z,99660.81
2022-11-20T07:03:06.320Z,99656.31
2022-11-20T07:04:37.357Z,99663.16
2022-11-20T07:06:11.873Z,99667.31
2022-11-20T07:07:35.048Z,99667.09
2022-11-20T07:09:02.950Z,99675.63
2022-11-20T07:10:34.899Z,99671.94
2022-11-20T07:12:08.869Z,99668.19
2022-11-20T07:13:42.722Z,99676.00
2022-11-20T07:15:10.942Z,99667.06
2022-11-20T07:16:38.489Z,99666.09
2022-11-20T07:18:10.875Z,99667.81
2022-11-20T07:19:43.647Z,99666.09
2022-11-20T07:21:15.315Z,99669.56
2022-11-20T07:22:40.699Z,99664.22
2022-11-20T07:24:03.082Z,99665.19
2022-11-20T07:25:24.196Z,99661.69
2022-11-20T07:26:50.059Z,99659.06
2022-11-20T07:28:16.513Z,99658.22
2022-11-20T07:29:48.969Z,99659.94
2022-11-20T07:31:32.712Z,99655.50
2022-11-20T07:33:09.959Z,99655.31
2022-11-20T07:34:44.484Z,99651.00
2022-11-20T07:36:19.086Z,99660.56
2022-11-20T07:37:58.941Z,99659.59
2022-11-20T07:39:38.631Z,99654.34
2022-11-20T07:41:40.454Z,99649.84
2022-11-20T07:43:45.457Z,99647.88
2022-11-20T07:45:27.255Z,99641.56
2022-11-20T07:47:09.556Z,99643.03
2022-11-20T07:51:01.664Z,99637.41
2022-11-20T07:52:33.088Z,99635.38
2022-11-20T07:54:06.301Z,99637.84
2022-11-20T07:55:37.272Z,99631.53
2022-11-20T07:57:00.390Z,99637.41
2022-11-20T07:58:29.018Z,99638.03
2022-11-20T07:59:58.063Z,99636.91
2022-11-20T08:01:20.807Z,99633.22
2022-11-20T08:02:46.371Z,99628.63
2022-11-20T08:04:46.712Z,99631.03
2022-11-20T08:06:45.282Z,99626.41
2022-11-20T08:08:54.970Z,99622.72
2022-11-20T08:10:35.356Z,99617.88
2022-11-20T08:12:15.834Z,99617.75
2022-11-20T08:14:13.185Z,99623.97
2022-11-20T08:15:35.954Z,99613.44
2022-11-20T08:16:58.478Z,99624.00
2022-11-20T08:18:31.574Z,99614.75
2022-11-20T08:19:54.683Z,99614.69
2022-11-20T08:21:19.183Z,99610.31
2022-11-20T08:22:51.533Z,99612.63
2022-11-20T08:24:13.835Z,99609.81
2022-11-20T08:25:37.037Z,99611.53
2022-11-20T08:27:00.336Z,99606.34
2022-11-20T08:28:22.462Z,99602.22
2022-11-20T08:29:44.772Z,99600.56
2022-11-20T08:31:05.499Z,99594.91
2022-11-20T08:32:28.043Z,99583.47
2022-11-20T08:33:50.656Z,99587.31
2022-11-20T08:35:16.174Z,99579.19
2022-11-20T08:36:40.746Z,99573.31
2022-11-20T08:38:08.493Z,99574.94
2022-11-20T08:39:30.795Z,99564.38
2022-11-20T08:41:06.545Z,99566.38
2022-11-20T08:42:29.103Z,99564.47
2022-11-20T08:43:52.098Z,99561.75
2022-11-20T08:45:14.134Z,99568.16
2022-11-20T08:46:40.626Z,99565.16
2022-11-20T08:48:06.335Z,99559.94
2022-11-20T08:49:32.942Z,99560.44
2022-11-20T08:52:53.227Z,99560.25
2022-11-20T08:54:24.356Z,99556.47
2022-11-20T08:56:08.266Z,99560.97
2022-11-20T08:58:31.023Z,99566.47
2022-11-20T09:00:04.319Z,99566.50
2022-11-20T09:01:26.326Z,99563.97
2022-11-20T09:03:01.022Z,99561.91
2022-11-20T09:04:25.235Z,99563.31
2022-11-20T09:07:56.036Z,99565.69
2022-11-20T09:09:21.781Z,99563.94
2022-11-20T09:10:47.287Z,99556.59
2022-11-20T09:12:10.967Z,99551.47
2022-11-20T09:13:35.862Z,99552.00
2022-11-20T09:15:00.080Z,99551.66
2022-11-20T09:16:25.361Z,99546.75
2022-11-20T09:17:53.385Z,99556.91
2022-11-20T09:21:00.130Z,99549.69
2022-11-20T09:22:22.439Z,99556.56
2022-11-20T09:23:49.937Z,99557.84
2022-11-20T09:25:13.882Z,99559.94
2022-11-20T09:26:38.147Z,99555.13
2022-11-20T09:28:01.203Z,99561.53
2022-11-20T09:29:35.843Z,99557.28
2022-11-20T09:30:59.650Z,99560.22
2022-11-20T09:33:10.790Z,99554.16
2022-11-20T09:34:30.337Z,99550.84
2022-11-20T09:35:52.730Z,99550.56
2022-11-20T09:37:17.942Z,99554.16
2022-11-20T09:38:57.586Z,99553.63
2022-11-20T09:40:30.400Z,99548.69
2022-11-20T09:42:47.057Z,99546.94
2022-11-20T09:44:23.555Z,99553.91
2022-11-20T09:46:13.968Z,99552.03
2022-11-20T09:48:09.310Z,99543.63
2022-11-20T09:49:45.162Z,99533.13
2022-11-20T09:51:28.572Z,99544.50
2022-11-20T09:53:21.692Z,99537.75
2022-11-20T09:55:08.555Z,99542.84
2022-11-20T09:57:04.753Z,99541.44
2022-11-20T09:58:54.444Z,99538.47
2022-11-20T10:00:29.494Z,99529.81
2022-11-20T10:02:02.185Z,99537.94
2022-11-20T10:03:48.279Z,99544.44
2022-11-20T10:05:25.031Z,99545.69
2022-11-20T10:07:30.963Z,99547.09
2022-11-20T10:08:55.323Z,99532.38
2022-11-20T10:10:19.827Z,99544.19
2022-11-20T10:11:55.082Z,99535.28
2022-11-20T10:13:43.958Z,99541.69
2022-11-20T10:15:27.526Z,99529.69
2022-11-20T10:17:04.166Z,99540.53
2022-11-20T10:18:58.476Z,99542.34
2022-11-20T10:21:46.486Z,99530.94
2022-11-20T10:23:08.070Z,99530.13
2022-11-20T10:25:08.502Z,99521.50
2022-11-20T10:26:43.721Z,99523.63
2022-11-20T10:28:31.086Z,99529.09
2022-11-20T10:30:13.780Z,99521.72
2022-11-20T10:31:44.848Z,99515.94
2022-11-20T10:33:23.763Z,99516.66
2022-11-20T10:35:14.302Z,99509.94
2022-11-20T10:37:03.639Z,99510.41
2022-11-20T10:47:26.836Z,99517.75
2022-11-20T10:49:04.416Z,99507.53
2022-11-20T10:50:32.738Z,99510.72
2022-11-20T10:52:13.315Z,99516.44
2022-11-20T10:54:11.319Z,99508.03
2022-11-20T10:55:44.835Z,99501.91
2022-11-20T10:57:18.244Z,99501.09
2022-11-20T10:58:47.738Z,99505.56
2022-11-20T11:00:25.386Z,99501.91
2022-11-20T11:01:59.793Z,99505.41
2022-11-20T11:03:29.831Z,99489.50
2022-11-20T11:04:54.170Z,99502.34
2022-11-20T11:06:24.718Z,99501.38
2022-11-20T11:07:49.010Z,99500.13
2022-11-20T11:09:16.042Z,99498.34
2022-11-20T11:10:47.243Z,99490.22
2022-11-20T11:12:11.245Z,99486.63
2022-11-20T11:13:36.298Z,99489.13
2022-11-20T11:14:59.912Z,99486.34
2022-11-20T11:16:29.511Z,99477.38
2022-11-20T11:17:56.934Z,99478.22
2022-11-20T11:19:19.068Z,99476.28
2022-11-20T11:20:41.268Z,99472.66
2022-11-20T11:22:02.563Z,99475.44
2022-11-20T11:23:37.434Z,99469.44
2022-11-20T11:25:01.451Z,99474.75
2022-11-20T11:26:28.293Z,99471.13
2022-11-20T11:27:54.004Z,99469.31
2022-11-20T11:29:21.336Z,99469.16
2022-11-20T11:30:49.683Z,99469.84
2022-11-20T11:32:15.964Z,99470.69
2022-11-20T11:33:39.984Z,99466.09
2022-11-20T11:35:04.541Z,99455.38
2022-11-20T11:36:29.312Z,99454.38
2022-11-20T11:37:52.635Z,99446.28
2022-11-20T11:39:19.936Z,99453.25
2022-11-20T11:40:43.151Z,99448.94
2022-11-20T11:42:05.817Z,99447.28
2022-11-20T11:43:53.803Z,99444.75
2022-11-20T11:45:18.533Z,99442.38
2022-11-20T11:46:42.326Z,99438.88
2022-11-20T11:48:06.701Z,99447.69
2022-11-20T11:49:28.046Z,99443.34
2022-11-20T11:50:55.094Z,99439.03
2022-11-20T11:52:20.960Z,99442.63
2022-11-20T11:53:45.335Z,99446.16
2022-11-20T11:55:13.792Z,99434.69
2022-11-20T11:56:36.070Z,99440.84
2022-11-20T11:58:09.709Z,99431.06
2022-11-20T11:59:49.542Z,99424.94
2022-11-20T12:01:25.062Z,99431.78
2022-11-20T12:02:58.938Z,99421.19
2022-11-20T12:04:31.576Z,99422.72
2022-11-20T12:06:06.278Z,99424.38
2022-11-20T12:07:48.569Z,99422.41
2022-11-20T12:09:17.776Z,99418.66
2022-11-20T12:10:48.750Z,99415.72
2022-11-20T12:12:22.113Z,99413.63
2022-11-20T12:13:53.452Z,99419.50
2022-11-20T12:15:28.512Z,99420.19
2022-11-20T12:16:54.456Z,99415.44
2022-11-20T12:18:27.247Z,99422.13
2022-11-20T12:19:52.411Z,99418.38
2022-11-20T12:21:33.688Z,99415.41
2022-11-20T12:23:02.790Z,99423.13
2022-11-20T12:24:53.753Z,99420.19
2022-11-20T12:26:25.336Z,99413.75
2022-11-20T12:28:03.873Z,99413.59
2022-11-20T12:29:40.303Z,99416.81
2022-11-20T12:31:21.549Z,99405.91
2022-11-20T12:33:15.445Z,99409.13
2022-11-20T12:34:54.138Z,99409.78
2022-11-20T12:36:27.256Z,99412.19
2022-11-20T12:38:05.331Z,99414.53
2022-11-20T12:39:45.920Z,99412.44
2022-11-20T12:41:42.720Z,99408.66
2022-11-20T12:43:35.700Z,99414.66
2022-11-20T12:45:34.888Z,99411.88
2022-11-20T12:47:12.711Z,99406.41
2022-11-20T12:48:46.646Z,99418.53
2022-11-20T12:50:22.017Z,99413.94
2022-11-20T12:52:19.046Z,99407.78
2022-11-20T12:53:51.492Z,99404.00
2022-11-20T12:55:25.040Z,99404.72
2022-11-20T12:57:03.448Z,99401.06
2022-11-20T12:58:42.948Z,99407.19
2022-11-20T13:00:15.496Z,99403.03
2022-11-20T13:01:54.727Z,99397.72
2022-11-20T13:03:45.074Z,99390.75
2022-11-20T13:05:22.577Z,99389.06
2022-11-20T13:06:46.639Z,99390.75
2022-11-20T13:08:22.432Z,99388.09
2022-11-20T13:09:55.465Z,99381.94
2022-11-20T13:11:25.148Z,99382.78
2022-11-20T13:12:52.216Z,99380.94
2022-11-20T13:14:29.024Z,99377.31
2022-11-20T13:15:58.131Z,99378.16
2022-11-20T13:17:26.183Z,99375.50
2022-11-20T13:18:50.107Z,99368.38
2022-11-20T13:20:17.653Z,99363.88
2022-11-20T13:21:41.718Z,99358.56
2022-11-20T13:23:06.297Z,99362.94
2022-11-20T13:24:38.329Z,99357.44
2022-11-20T13:26:08.858Z,99359.28
2022-11-20T13:27:32.206Z,99353.97
2022-11-20T13:29:07.626Z,99352.31
2022-11-20T13:30:31.326Z,99355.78
2022-11-20T13:31:53.834Z,99350.47
2022-11-20T13:33:31.072Z,99355.94
2022-11-20T13:35:02.906Z,99342.66
2022-11-20T13:36:29.186Z,99347.13
2022-11-20T13:38:10.369Z,99349.09
2022-11-20T13:39:47.751Z,99341.94
2022-11-20T13:41:47.704Z,99341.28
2022-11-20T13:44:08.701Z,99344.22
2022-11-20T13:46:29.551Z,99342.41
2022-11-20T13:51:06.002Z,99342.03
2022-11-20T13:56:22.663Z,99331.44
2022-11-20T14:00:49.394Z,99334.81
2022-11-20T14:02:53.626Z,99336.91
2022-11-20T14:04:33.338Z,99331.06
2022-11-20T14:06:12.290Z,99329.38
2022-11-20T14:08:06.639Z,99331.50
2022-11-20T14:09:59.243Z,99327.16
2022-11-20T14:11:30.916Z,99327.44
2022-11-20T14:12:57.903Z,99323.97
2022-11-20T14:14:51.521Z,99327.59
2022-11-20T14:16:14.423Z,99318.13
2022-11-20T14:17:44.746Z,99316.41
2022-11-20T14:19:32.780Z,99319.38
2022-11-20T14:20:55.172Z,99319.50
2022-11-20T14:22:24.300Z,99313.50
2022-11-20T14:24:38.959Z,99313.78
2022-11-20T14:27:01.379Z,99305.31
2022-11-20T14:29:31.532Z,99307.38
2022-11-20T14:31:30.822Z,99307.81
2022-11-20T14:32:59.656Z,99307.97
2022-11-20T14:34:47.847Z,99303.78
2022-11-20T14:38:07.593Z,99314.13
2022-11-20T14:39:38.676Z,99317.88
2022-11-20T14:42:04.552Z,99312.03
2022-11-20T14:43:37.299Z,99316.78
2022-11-20T14:45:20.526Z,99313.59
2022-11-20T14:46:45.609Z,99305.91
2022-11-20T14:48:15.954Z,99299.91
2022-11-20T14:50:20.513Z,99303.00
2022-11-20T14:51:46.736Z,99305.75
2022-11-20T14:53:18.857Z,99310.53
2022-11-20T14:54:47.551Z,99298.53
2022-11-20T14:56:11.638Z,99296.03
2022-11-20T14:57:38.944Z,99300.63
2022-11-20T14:59:07.816Z,99296.56
2022-11-20T15:01:06.495Z,99296.97
2022-11-20T15:02:36.052Z,99296.28
2022-11-20T15:04:14.139Z,99296.56
2022-11-20T15:06:14.219Z,99291.69
2022-11-20T15:08:06.722Z,99301.56
2022-11-20T15:09:33.670Z,99296.72
2022-11-20T15:11:06.507Z,99302.13
2022-11-20T15:12:48.577Z,99293.78
2022-11-20T15:14:17.148Z,99303.66
2022-11-20T15:15:52.179Z,99300.47
2022-11-20T15:17:14.805Z,99302.41
2022-11-20T15:18:44.378Z,99296.53
2022-11-20T15:20:16.763Z,99296.69
2022-11-20T15:21:47.999Z,99303.09
2022-11-20T15:23:14.584Z,99299.88
2022-11-20T15:24:36.831Z,99295.69
2022-11-20T15:26:02.385Z,99302.09
2022-11-20T15:27:33.740Z,99300.44
2022-11-20T15:28:56.455Z,99297.06
2022-11-20T15:30:20.602Z,99299.84
2022-11-20T15:31:55.826Z,99293.88
2022-11-20T15:33:44.104Z,99299.28
2022-11-20T15:35:29.491Z,99300.41
2022-11-20T15:36:59.364Z,99295.22
2022-11-20T15:38:24.949Z,99292.75
2022-11-20T15:39:48.051Z,99302.63
2022-11-20T15:41:13.874Z,99299.28
2022-11-20T15:42:37.858Z,99299.41
2022-11-20T15:44:05.673Z,99300.38
2022-11-20T15:45:30.993Z,99300.66
2022-11-20T15:46:53.943Z,99304.25
2022-11-20T15:48:30.427Z,99301.75
2022-11-20T15:49:59.158Z,99296.72
2022-11-20T15:51:31.986Z,99295.19
2022-11-20T15:53:08.383Z,99300.63
2022-11-20T15:54:39.514Z,99297.25
2022-11-20T15:56:18.963Z,99302.69
2022-11-20T15:58:14.460Z,99294.91
2022-11-20T16:00:11.822Z,99296.97
2022-11-20T16:01:52.302Z,99305.88
2022-11-20T16:03:22.610Z,99300.72
2022-11-20T16:04:56.749Z,99306.16
2022-11-20T16:07:18.065Z,99302.91
2022-11-20T16:08:46.765Z,99303.06
2022-11-20T16:10:47.107Z,99298.88
2022-11-20T16:14:33.458Z,99291.34
2022-11-20T16:16:10.718Z,99292.28
2022-11-20T16:17:45.263Z,99289.91
2022-11-20T16:19:22.010Z,99288.25
2022-11-20T16:21:14.963Z,99291.84
2022-11-20T16:22:55.763Z,99293.09
2022-11-20T16:24:39.274Z,99294.06
2022-11-20T16:26:49.739Z,99302.25
2022-11-20T16:28:36.458Z,99290.03
2022-11-20T16:31:04.498Z,99284.84
2022-11-20T16:32:29.545Z,99281.38
2022-11-20T16:34:23.128Z,99284.97
2022-11-20T16:35:46.485Z,99289.44
2022-11-20T16:37:44.307Z,99285.25
2022-11-20T16:39:09.125Z,99279.97
2022-11-20T16:40:43.944Z,99283.59
2022-11-20T16:42:11.649Z,99280.22
2022-11-20T16:46:17.709Z,99277.84
2022-11-20T16:47:58.835Z,99285.06
2022-11-20T16:50:02.186Z,99282.56
2022-11-20T16:51:46.345Z,99283.66
2022-11-20T16:53:14.646Z,99291.72
2022-11-20T16:54:39.676Z,99285.59
2022-11-20T16:56:15.631Z,99290.16
2022-11-20T16:57:50.294Z,99291.13
2022-11-20T16:59:30.140Z,99285.13
2022-11-20T17:01:07.203Z,99285.13
2022-11-20T17:02:34.716Z,99284.44
2022-11-20T17:04:26.194Z,99281.09
2022-11-20T17:05:55.671Z,99283.88
2022-11-20T17:07:47.856Z,99286.63
2022-11-20T17:11:21.357Z,99291.34
2022-11-20T17:12:46.722Z,99288.81
2022-11-20T17:14:19.564Z,99289.81
2022-11-20T17:15:44.754Z,99285.72
2022-11-20T17:17:15.730Z,99288.25
2022-11-20T17:18:38.948Z,99294.63
2022-11-20T17:20:10.182Z,99287.66
2022-11-20T17:21:37.421Z,99279.88
2022-11-20T17:23:00.375Z,99286.13
2022-11-20T17:24:32.352Z,99292.25
2022-11-20T17:26:00.493Z,99296.94
2022-11-20T17:27:27.088Z,99305.84
2022-11-20T17:28:56.597Z,99298.03
2022-11-20T17:30:44.288Z,99305.13
2022-11-20T17:33:44.398Z,99305.53
2022-11-20T17:35:10.209Z,99309.97
2022-11-20T17:36:47.170Z,99311.06
2022-11-20T17:38:17.893Z,99312.00
2022-11-20T17:39:46.305Z,99312.00
2022-11-20T17:41:14.597Z,99313.97
2022-11-20T17:42:41.743Z,99312.28
2022-11-20T17:44:06.957Z,99316.00
2022-11-20T17:45:35.132Z,99317.00
2022-11-20T17:47:08.165Z,99315.28
2022-11-20T17:48:43.031Z,99315.28
2022-11-20T17:50:13.659Z,99312.09
2022-11-20T17:52:15.013Z,99316.53
2022-11-20T18:01:43.280Z,99309.63
2022-11-20T18:03:51.170Z,99302.63
2022-11-20T18:05:16.866Z,99302.06
2022-11-20T18:06:41.199Z,99299.53
2022-11-20T18:14:17.238Z,99291.69
2022-11-20T18:16:08.863Z,99289.97
2022-11-20T18:20:43.909Z,99283.88
2022-11-20T18:36:02.547Z,99286.50
2022-11-20T18:37:56.675Z,99291.06
2022-11-20T18:39:31.036Z,99291.22
2022-11-20T18:49:40.689Z,99306.59
2022-11-20T18:55:55.818Z,99308.38
2022-11-20T18:57:21.700Z,99312.81
2022-11-20T18:58:44.503Z,99315.34
2022-11-20T19:00:09.664Z,99310.19
2022-11-20T19:01:32.811Z,99312.81
2022-11-20T19:02:55.780Z,99307.44
2022-11-20T19:04:19.733Z,99304.91
2022-11-20T19:05:44.777Z,99304.91
2022-11-20T19:07:07.175Z,99301.53
2022-11-20T19:08:32.043Z,99300.72
2022-11-20T19:09:56.608Z,99300.72
2022-11-20T19:11:22.380Z,99297.34
2022-11-20T19:12:54.282Z,99293.88
2022-11-20T19:14:26.417Z,99298.31
2022-11-20T19:15:49.118Z,99294.03
2022-11-20T19:17:13.045Z,99291.38
2022-11-20T19:18:35.661Z,99297.50
2022-11-20T19:19:58.072Z,99290.53
2022-11-20T19:21:22.292Z,99299.31
2022-11-20T19:22:44.693Z,99295.69
2022-11-20T19:24:11.715Z,99301.53
2022-11-20T19:25:38.210Z,99308.50
2022-11-20T19:27:04.783Z,99299.50
2022-11-20T19:28:27.148Z,99300.22
2022-11-20T19:29:49.544Z,99312.34